sensor_id;sensor_type;location;lat;lon;timestamp;P1;durP1;ratioP1;P2;durP2;ratioP2
3293;SDS011;1659;51.470;6.770;2023-12-29T00:00:48;6.00;;;2.40;;
3293;SDS011;1659;51.470;6.770;2023-12-29T00:03:15;2.60;;;2.00;;
3293;SDS011;1659;51.470;6.770;2023-12-29T00:05:41;4.70;;;2.03;;
3293;SDS011;1659;51.470;6.770;2023-12-29T00:08:08;6.50;;;2.43;;
3293;SDS011;1659;51.470;6.770;2023-12-29T00:10:34;7.37;;;1.97;;
3293;SDS011;1659;51.470;6.770;2023-12-29T00:13:01;2.87;;;1.90;;
3293;SDS011;1659;51.470;6.770;2023-12-29T00:15:29;8.77;;;3.40;;
3293;SDS011;1659;51.470;6.770;2023-12-29T00:17:55;5.50;;;2.70;;
3293;SDS011;1659;51.470;6.770;2023-12-29T00:20:22;13.93;;;4.20;;
3293;SDS011;1659;51.470;6.770;2023-12-29T00:22:48;2.73;;;1.90;;
3293;SDS011;1659;51.470;6.770;2023-12-29T00:25:15;5.50;;;2.07;;
3293;SDS011;1659;51.470;6.770;2023-12-29T00:27:42;6.83;;;2.53;;
3293;SDS011;1659;51.470;6.770;2023-12-29T00:30:09;6.13;;;2.47;;
3293;SDS011;1659;51.470;6.770;2023-12-29T00:32:38;10.30;;;3.10;;
3293;SDS011;1659;51.470;6.770;2023-12-29T00:35:04;2.20;;;2.00;;
3293;SDS011;1659;51.470;6.770;2023-12-29T00:37:31;6.77;;;2.00;;
3293;SDS011;1659;51.470;6.770;2023-12-29T00:39:58;3.20;;;1.80;;
3293;SDS011;1659;51.470;6.770;2023-12-29T00:42:24;8.23;;;2.50;;
3293;SDS011;1659;51.470;6.770;2023-12-29T00:44:51;4.23;;;2.17;;
3293;SDS011;1659;51.470;6.770;2023-12-29T00:47:17;5.80;;;2.50;;
3293;SDS011;1659;51.470;6.770;2023-12-29T00:49:46;4.43;;;2.20;;
3293;SDS011;1659;51.470;6.770;2023-12-29T00:52:12;2.30;;;2.10;;
3293;SDS011;1659;51.470;6.770;2023-12-29T00:54:39;5.27;;;2.70;;
3293;SDS011;1659;51.470;6.770;2023-12-29T00:57:06;3.13;;;2.20;;
3293;SDS011;1659;51.470;6.770;2023-12-29T00:59:33;3.67;;;1.90;;
3293;SDS011;1659;51.470;6.770;2023-12-29T01:02:03;3.80;;;1.70;;
3293;SDS011;1659;51.470;6.770;2023-12-29T01:04:29;4.30;;;2.20;;
3293;SDS011;1659;51.470;6.770;2023-12-29T01:06:57;3.63;;;2.03;;
3293;SDS011;1659;51.470;6.770;2023-12-29T01:09:26;6.63;;;2.57;;
3293;SDS011;1659;51.470;6.770;2023-12-29T01:11:52;8.33;;;3.17;;
3293;SDS011;1659;51.470;6.770;2023-12-29T01:14:19;3.33;;;1.53;;
3293;SDS011;1659;51.470;6.770;2023-12-29T01:16:45;2.97;;;2.43;;
3293;SDS011;1659;51.470;6.770;2023-12-29T01:19:12;4.63;;;2.50;;
3293;SDS011;1659;51.470;6.770;2023-12-29T01:21:39;4.10;;;2.00;;
3293;SDS011;1659;51.470;6.770;2023-12-29T01:24:07;6.57;;;3.20;;
3293;SDS011;1659;51.470;6.770;2023-12-29T01:26:36;7.57;;;2.80;;
3293;SDS011;1659;51.470;6.770;2023-12-29T01:29:03;4.93;;;3.17;;
3293;SDS011;1659;51.470;6.770;2023-12-29T01:31:29;5.93;;;2.97;;
3293;SDS011;1659;51.470;6.770;2023-12-29T01:33:56;5.40;;;2.50;;
3293;SDS011;1659;51.470;6.770;2023-12-29T01:36:23;5.03;;;2.93;;
3293;SDS011;1659;51.470;6.770;2023-12-29T01:38:49;8.47;;;2.60;;
3293;SDS011;1659;51.470;6.770;2023-12-29T01:41:20;5.20;;;3.17;;
3293;SDS011;1659;51.470;6.770;2023-12-29T01:44:09;6.73;;;3.27;;
3293;SDS011;1659;51.470;6.770;2023-12-29T01:46:47;3.90;;;2.47;;
3293;SDS011;1659;51.470;6.770;2023-12-29T01:49:16;8.60;;;2.50;;
3293;SDS011;1659;51.470;6.770;2023-12-29T01:51:44;2.90;;;2.20;;
3293;SDS011;1659;51.470;6.770;2023-12-29T01:54:11;6.10;;;2.63;;
3293;SDS011;1659;51.470;6.770;2023-12-29T01:56:40;6.83;;;3.40;;
3293;SDS011;1659;51.470;6.770;2023-12-29T01:59:07;7.97;;;2.60;;
3293;SDS011;1659;51.470;6.770;2023-12-29T02:01:34;10.60;;;3.27;;
3293;SDS011;1659;51.470;6.770;2023-12-29T02:04:03;7.20;;;2.17;;
3293;SDS011;1659;51.470;6.770;2023-12-29T02:06:29;12.07;;;2.63;;
3293;SDS011;1659;51.470;6.770;2023-12-29T02:08:58;7.70;;;2.97;;
3293;SDS011;1659;51.470;6.770;2023-12-29T02:11:25;6.13;;;3.00;;
3293;SDS011;1659;51.470;6.770;2023-12-29T02:13:53;9.03;;;2.90;;
3293;SDS011;1659;51.470;6.770;2023-12-29T02:16:21;7.00;;;3.00;;
3293;SDS011;1659;51.470;6.770;2023-12-29T02:18:58;7.50;;;3.50;;
3293;SDS011;1659;51.470;6.770;2023-12-29T02:21:28;5.57;;;3.40;;
3293;SDS011;1659;51.470;6.770;2023-12-29T02:23:55;4.93;;;2.90;;
3293;SDS011;1659;51.470;6.770;2023-12-29T02:26:22;8.67;;;3.27;;
3293;SDS011;1659;51.470;6.770;2023-12-29T02:28:56;7.20;;;3.17;;
3293;SDS011;1659;51.470;6.770;2023-12-29T02:31:28;6.23;;;3.07;;
3293;SDS011;1659;51.470;6.770;2023-12-29T02:33:59;7.30;;;3.13;;
3293;SDS011;1659;51.470;6.770;2023-12-29T02:36:31;10.77;;;3.37;;
3293;SDS011;1659;51.470;6.770;2023-12-29T02:38:59;9.27;;;3.90;;
3293;SDS011;1659;51.470;6.770;2023-12-29T02:41:27;8.83;;;4.00;;
3293;SDS011;1659;51.470;6.770;2023-12-29T02:43:53;8.40;;;3.63;;
3293;SDS011;1659;51.470;6.770;2023-12-29T02:46:20;4.73;;;2.87;;
3293;SDS011;1659;51.470;6.770;2023-12-29T02:48:46;9.40;;;3.40;;
3293;SDS011;1659;51.470;6.770;2023-12-29T02:51:13;7.40;;;3.27;;
3293;SDS011;1659;51.470;6.770;2023-12-29T02:53:39;9.07;;;3.27;;
3293;SDS011;1659;51.470;6.770;2023-12-29T02:56:06;9.77;;;3.83;;
3293;SDS011;1659;51.470;6.770;2023-12-29T02:58:34;5.40;;;3.10;;
3293;SDS011;1659;51.470;6.770;2023-12-29T03:01:01;7.93;;;2.93;;
3293;SDS011;1659;51.470;6.770;2023-12-29T03:03:27;13.00;;;4.83;;
3293;SDS011;1659;51.470;6.770;2023-12-29T03:05:54;8.50;;;3.47;;
3293;SDS011;1659;51.470;6.770;2023-12-29T03:08:20;9.07;;;3.47;;
3293;SDS011;1659;51.470;6.770;2023-12-29T03:10:47;4.27;;;3.20;;
3293;SDS011;1659;51.470;6.770;2023-12-29T03:13:13;9.50;;;3.50;;
3293;SDS011;1659;51.470;6.770;2023-12-29T03:15:41;18.13;;;4.33;;
3293;SDS011;1659;51.470;6.770;2023-12-29T03:18:08;6.27;;;3.50;;
3293;SDS011;1659;51.470;6.770;2023-12-29T03:20:35;9.37;;;3.63;;
3293;SDS011;1659;51.470;6.770;2023-12-29T03:23:01;11.60;;;3.97;;
3293;SDS011;1659;51.470;6.770;2023-12-29T03:25:28;10.10;;;3.40;;
3293;SDS011;1659;51.470;6.770;2023-12-29T03:27:54;9.33;;;3.30;;
3293;SDS011;1659;51.470;6.770;2023-12-29T03:30:21;12.70;;;3.40;;
3293;SDS011;1659;51.470;6.770;2023-12-29T03:32:49;4.93;;;3.03;;
3293;SDS011;1659;51.470;6.770;2023-12-29T03:35:15;4.37;;;2.97;;
3293;SDS011;1659;51.470;6.770;2023-12-29T03:37:42;11.27;;;3.07;;
3293;SDS011;1659;51.470;6.770;2023-12-29T03:40:09;8.50;;;3.23;;
3293;SDS011;1659;51.470;6.770;2023-12-29T03:42:35;9.20;;;3.43;;
3293;SDS011;1659;51.470;6.770;2023-12-29T03:45:02;4.50;;;2.70;;
3293;SDS011;1659;51.470;6.770;2023-12-29T03:47:29;4.43;;;2.77;;
3293;SDS011;1659;51.470;6.770;2023-12-29T03:49:58;3.60;;;2.73;;
3293;SDS011;1659;51.470;6.770;2023-12-29T03:52:24;8.00;;;2.93;;
3293;SDS011;1659;51.470;6.770;2023-12-29T03:54:51;12.50;;;3.63;;
3293;SDS011;1659;51.470;6.770;2023-12-29T03:57:17;3.37;;;3.07;;
3293;SDS011;1659;51.470;6.770;2023-12-29T03:59:44;7.23;;;3.60;;
3293;SDS011;1659;51.470;6.770;2023-12-29T04:02:10;12.47;;;3.40;;
3293;SDS011;1659;51.470;6.770;2023-12-29T04:04:37;5.20;;;2.87;;
3293;SDS011;1659;51.470;6.770;2023-12-29T04:07:05;7.80;;;3.00;;
3293;SDS011;1659;51.470;6.770;2023-12-29T04:09:32;5.60;;;3.00;;
3293;SDS011;1659;51.470;6.770;2023-12-29T04:11:58;7.20;;;3.13;;
3293;SDS011;1659;51.470;6.770;2023-12-29T04:14:25;10.47;;;4.10;;
3293;SDS011;1659;51.470;6.770;2023-12-29T04:16:51;22.73;;;3.07;;
3293;SDS011;1659;51.470;6.770;2023-12-29T04:19:18;7.33;;;2.80;;
3293;SDS011;1659;51.470;6.770;2023-12-29T04:21:44;9.90;;;2.50;;
3293;SDS011;1659;51.470;6.770;2023-12-29T04:24:12;3.37;;;2.90;;
3293;SDS011;1659;51.470;6.770;2023-12-29T04:26:39;9.93;;;3.10;;
3293;SDS011;1659;51.470;6.770;2023-12-29T04:29:05;11.03;;;2.63;;
3293;SDS011;1659;51.470;6.770;2023-12-29T04:31:32;7.63;;;2.60;;
3293;SDS011;1659;51.470;6.770;2023-12-29T04:33:58;5.80;;;3.27;;
3293;SDS011;1659;51.470;6.770;2023-12-29T04:36:25;11.33;;;2.97;;
3293;SDS011;1659;51.470;6.770;2023-12-29T04:38:52;6.80;;;3.90;;
3293;SDS011;1659;51.470;6.770;2023-12-29T04:41:19;7.40;;;2.50;;
3293;SDS011;1659;51.470;6.770;2023-12-29T04:43:46;6.33;;;2.90;;
3293;SDS011;1659;51.470;6.770;2023-12-29T04:46:13;3.80;;;2.40;;
3293;SDS011;1659;51.470;6.770;2023-12-29T04:48:39;7.80;;;2.40;;
3293;SDS011;1659;51.470;6.770;2023-12-29T04:51:06;6.23;;;2.67;;
3293;SDS011;1659;51.470;6.770;2023-12-29T04:53:32;9.87;;;3.37;;
3293;SDS011;1659;51.470;6.770;2023-12-29T04:55:59;10.93;;;3.40;;
3293;SDS011;1659;51.470;6.770;2023-12-29T04:58:26;2.90;;;2.40;;
3293;SDS011;1659;51.470;6.770;2023-12-29T05:00:53;10.97;;;2.50;;
3293;SDS011;1659;51.470;6.770;2023-12-29T05:03:20;6.37;;;3.27;;
3293;SDS011;1659;51.470;6.770;2023-12-29T05:05:46;6.33;;;2.60;;
3293;SDS011;1659;51.470;6.770;2023-12-29T05:08:13;8.73;;;2.90;;
3293;SDS011;1659;51.470;6.770;2023-12-29T05:10:39;6.93;;;2.43;;
3293;SDS011;1659;51.470;6.770;2023-12-29T05:13:06;8.23;;;3.03;;
3293;SDS011;1659;51.470;6.770;2023-12-29T05:15:34;15.97;;;2.70;;
3293;SDS011;1659;51.470;6.770;2023-12-29T05:18:00;4.07;;;2.50;;
3293;SDS011;1659;51.470;6.770;2023-12-29T05:20:27;4.83;;;2.60;;
3293;SDS011;1659;51.470;6.770;2023-12-29T05:22:53;8.00;;;2.90;;
3293;SDS011;1659;51.470;6.770;2023-12-29T05:25:20;6.80;;;3.43;;
3293;SDS011;1659;51.470;6.770;2023-12-29T05:27:49;4.07;;;2.60;;
3293;SDS011;1659;51.470;6.770;2023-12-29T05:30:15;9.13;;;2.70;;
3293;SDS011;1659;51.470;6.770;2023-12-29T05:32:43;8.93;;;2.47;;
3293;SDS011;1659;51.470;6.770;2023-12-29T05:35:10;6.80;;;2.77;;
3293;SDS011;1659;51.470;6.770;2023-12-29T05:37:36;6.93;;;2.47;;
3293;SDS011;1659;51.470;6.770;2023-12-29T05:40:03;4.33;;;2.50;;
3293;SDS011;1659;51.470;6.770;2023-12-29T05:42:31;9.47;;;3.50;;
3293;SDS011;1659;51.470;6.770;2023-12-29T05:44:57;8.57;;;2.57;;
3293;SDS011;1659;51.470;6.770;2023-12-29T05:47:24;8.97;;;2.97;;
3293;SDS011;1659;51.470;6.770;2023-12-29T05:49:52;4.10;;;2.83;;
3293;SDS011;1659;51.470;6.770;2023-12-29T05:52:18;15.47;;;2.93;;
3293;SDS011;1659;51.470;6.770;2023-12-29T05:54:45;7.53;;;2.83;;
3293;SDS011;1659;51.470;6.770;2023-12-29T05:57:12;7.47;;;2.60;;
3293;SDS011;1659;51.470;6.770;2023-12-29T05:59:38;11.40;;;3.20;;
3293;SDS011;1659;51.470;6.770;2023-12-29T06:02:06;10.20;;;3.13;;
3293;SDS011;1659;51.470;6.770;2023-12-29T06:04:32;6.93;;;2.30;;
3293;SDS011;1659;51.470;6.770;2023-12-29T06:07:00;7.70;;;3.10;;
3293;SDS011;1659;51.470;6.770;2023-12-29T06:09:27;10.90;;;3.47;;
3293;SDS011;1659;51.470;6.770;2023-12-29T06:11:53;9.07;;;2.63;;
3293;SDS011;1659;51.470;6.770;2023-12-29T06:14:20;7.23;;;2.30;;
3293;SDS011;1659;51.470;6.770;2023-12-29T06:16:47;8.03;;;2.50;;
3293;SDS011;1659;51.470;6.770;2023-12-29T06:19:13;7.20;;;2.70;;
3293;SDS011;1659;51.470;6.770;2023-12-29T06:21:40;7.70;;;1.83;;
3293;SDS011;1659;51.470;6.770;2023-12-29T06:24:09;5.37;;;2.40;;
3293;SDS011;1659;51.470;6.770;2023-12-29T06:26:36;9.93;;;2.93;;
3293;SDS011;1659;51.470;6.770;2023-12-29T06:29:06;6.73;;;2.70;;
3293;SDS011;1659;51.470;6.770;2023-12-29T06:31:33;7.27;;;2.30;;
3293;SDS011;1659;51.470;6.770;2023-12-29T06:34:00;7.57;;;2.43;;
3293;SDS011;1659;51.470;6.770;2023-12-29T06:36:27;9.67;;;3.00;;
3293;SDS011;1659;51.470;6.770;2023-12-29T06:38:53;18.47;;;2.97;;
3293;SDS011;1659;51.470;6.770;2023-12-29T06:41:22;14.40;;;2.60;;
3293;SDS011;1659;51.470;6.770;2023-12-29T06:43:49;12.13;;;2.43;;
3293;SDS011;1659;51.470;6.770;2023-12-29T06:46:16;6.20;;;2.47;;
3293;SDS011;1659;51.470;6.770;2023-12-29T06:48:43;10.13;;;2.43;;
3293;SDS011;1659;51.470;6.770;2023-12-29T06:51:09;5.57;;;3.03;;
3293;SDS011;1659;51.470;6.770;2023-12-29T06:53:42;2.33;;;2.13;;
3293;SDS011;1659;51.470;6.770;2023-12-29T06:56:12;7.60;;;2.60;;
3293;SDS011;1659;51.470;6.770;2023-12-29T06:58:40;5.47;;;2.30;;
3293;SDS011;1659;51.470;6.770;2023-12-29T07:01:07;5.77;;;2.83;;
3293;SDS011;1659;51.470;6.770;2023-12-29T07:03:34;8.30;;;3.20;;
3293;SDS011;1659;51.470;6.770;2023-12-29T07:06:01;6.80;;;2.10;;
3293;SDS011;1659;51.470;6.770;2023-12-29T07:08:27;7.20;;;3.17;;
3293;SDS011;1659;51.470;6.770;2023-12-29T07:10:54;6.03;;;2.40;;
3293;SDS011;1659;51.470;6.770;2023-12-29T07:13:21;4.93;;;2.50;;
3293;SDS011;1659;51.470;6.770;2023-12-29T07:15:49;5.60;;;2.50;;
3293;SDS011;1659;51.470;6.770;2023-12-29T07:18:15;6.63;;;1.93;;
3293;SDS011;1659;51.470;6.770;2023-12-29T07:20:42;13.83;;;4.17;;
3293;SDS011;1659;51.470;6.770;2023-12-29T07:23:09;4.10;;;2.43;;
3293;SDS011;1659;51.470;6.770;2023-12-29T07:25:35;8.53;;;2.30;;
3293;SDS011;1659;51.470;6.770;2023-12-29T07:28:02;7.23;;;2.40;;
3293;SDS011;1659;51.470;6.770;2023-12-29T07:30:29;5.93;;;2.30;;
3293;SDS011;1659;51.470;6.770;2023-12-29T07:32:57;13.20;;;4.00;;
3293;SDS011;1659;51.470;6.770;2023-12-29T07:35:23;11.90;;;3.23;;
3293;SDS011;1659;51.470;6.770;2023-12-29T07:37:50;7.47;;;2.70;;
3293;SDS011;1659;51.470;6.770;2023-12-29T07:40:17;11.37;;;2.87;;
3293;SDS011;1659;51.470;6.770;2023-12-29T07:42:44;8.30;;;2.90;;
3293;SDS011;1659;51.470;6.770;2023-12-29T07:45:15;6.40;;;3.03;;
3293;SDS011;1659;51.470;6.770;2023-12-29T07:47:41;5.50;;;2.43;;
3293;SDS011;1659;51.470;6.770;2023-12-29T07:50:10;6.30;;;2.20;;
3293;SDS011;1659;51.470;6.770;2023-12-29T07:52:36;5.40;;;2.57;;
3293;SDS011;1659;51.470;6.770;2023-12-29T07:55:03;6.80;;;2.90;;
3293;SDS011;1659;51.470;6.770;2023-12-29T07:57:30;8.27;;;2.33;;
3293;SDS011;1659;51.470;6.770;2023-12-29T07:59:57;3.70;;;2.80;;
3293;SDS011;1659;51.470;6.770;2023-12-29T08:02:23;10.13;;;3.00;;
3293;SDS011;1659;51.470;6.770;2023-12-29T08:04:50;7.33;;;2.57;;
3293;SDS011;1659;51.470;6.770;2023-12-29T08:07:18;9.43;;;3.40;;
3293;SDS011;1659;51.470;6.770;2023-12-29T08:09:44;14.10;;;2.60;;
3293;SDS011;1659;51.470;6.770;2023-12-29T08:12:11;7.47;;;2.60;;
3293;SDS011;1659;51.470;6.770;2023-12-29T08:14:38;4.30;;;2.10;;
3293;SDS011;1659;51.470;6.770;2023-12-29T08:17:04;3.97;;;2.13;;
3293;SDS011;1659;51.470;6.770;2023-12-29T08:19:32;6.03;;;2.20;;
3293;SDS011;1659;51.470;6.770;2023-12-29T08:21:58;8.43;;;2.73;;
3293;SDS011;1659;51.470;6.770;2023-12-29T08:24:26;6.73;;;2.73;;
3293;SDS011;1659;51.470;6.770;2023-12-29T08:26:53;8.07;;;3.37;;
3293;SDS011;1659;51.470;6.770;2023-12-29T08:29:19;6.60;;;2.33;;
3293;SDS011;1659;51.470;6.770;2023-12-29T08:31:46;6.70;;;2.23;;
3293;SDS011;1659;51.470;6.770;2023-12-29T08:34:13;3.13;;;1.93;;
3293;SDS011;1659;51.470;6.770;2023-12-29T08:36:40;7.87;;;3.53;;
3293;SDS011;1659;51.470;6.770;2023-12-29T08:39:06;6.37;;;2.03;;
3293;SDS011;1659;51.470;6.770;2023-12-29T08:41:35;5.13;;;2.40;;
3293;SDS011;1659;51.470;6.770;2023-12-29T08:44:02;4.47;;;2.40;;
3293;SDS011;1659;51.470;6.770;2023-12-29T08:46:29;6.40;;;2.87;;
3293;SDS011;1659;51.470;6.770;2023-12-29T08:48:55;14.53;;;2.90;;
3293;SDS011;1659;51.470;6.770;2023-12-29T08:51:22;6.33;;;2.70;;
3293;SDS011;1659;51.470;6.770;2023-12-29T08:53:48;5.83;;;2.03;;
3293;SDS011;1659;51.470;6.770;2023-12-29T08:56:15;6.20;;;2.27;;
3293;SDS011;1659;51.470;6.770;2023-12-29T08:58:43;6.30;;;1.57;;
3293;SDS011;1659;51.470;6.770;2023-12-29T09:01:09;5.87;;;2.20;;
3293;SDS011;1659;51.470;6.770;2023-12-29T09:03:36;5.23;;;2.30;;
3293;SDS011;1659;51.470;6.770;2023-12-29T09:06:03;6.83;;;2.00;;
3293;SDS011;1659;51.470;6.770;2023-12-29T09:08:30;8.10;;;1.57;;
3293;SDS011;1659;51.470;6.770;2023-12-29T09:10:57;3.70;;;1.50;;
3293;SDS011;1659;51.470;6.770;2023-12-29T09:13:23;3.50;;;1.87;;
3293;SDS011;1659;51.470;6.770;2023-12-29T09:15:53;2.50;;;1.53;;
3293;SDS011;1659;51.470;6.770;2023-12-29T09:18:20;2.10;;;1.20;;
3293;SDS011;1659;51.470;6.770;2023-12-29T09:20:47;2.20;;;1.50;;
3293;SDS011;1659;51.470;6.770;2023-12-29T09:23:14;2.20;;;1.53;;
3293;SDS011;1659;51.470;6.770;2023-12-29T09:25:40;3.57;;;2.10;;
3293;SDS011;1659;51.470;6.770;2023-12-29T09:28:07;1.80;;;1.40;;
3293;SDS011;1659;51.470;6.770;2023-12-29T09:30:34;4.30;;;1.53;;
3293;SDS011;1659;51.470;6.770;2023-12-29T09:33:02;2.30;;;1.13;;
3293;SDS011;1659;51.470;6.770;2023-12-29T09:35:28;1.33;;;0.87;;
3293;SDS011;1659;51.470;6.770;2023-12-29T09:37:55;2.20;;;1.00;;
3293;SDS011;1659;51.470;6.770;2023-12-29T09:40:23;1.73;;;1.50;;
3293;SDS011;1659;51.470;6.770;2023-12-29T09:42:51;1.20;;;1.10;;
3293;SDS011;1659;51.470;6.770;2023-12-29T09:45:20;1.13;;;1.03;;
3293;SDS011;1659;51.470;6.770;2023-12-29T09:47:50;1.27;;;1.10;;
3293;SDS011;1659;51.470;6.770;2023-12-29T09:50:19;1.13;;;1.00;;
3293;SDS011;1659;51.470;6.770;2023-12-29T09:52:48;3.13;;;1.50;;
3293;SDS011;1659;51.470;6.770;2023-12-29T09:55:15;3.70;;;1.57;;
3293;SDS011;1659;51.470;6.770;2023-12-29T09:57:42;3.00;;;1.40;;
3293;SDS011;1659;51.470;6.770;2023-12-29T10:00:10;2.00;;;1.10;;
3293;SDS011;1659;51.470;6.770;2023-12-29T10:02:38;1.27;;;1.17;;
3293;SDS011;1659;51.470;6.770;2023-12-29T10:05:05;1.10;;;1.03;;
3293;SDS011;1659;51.470;6.770;2023-12-29T10:07:36;3.87;;;1.27;;
3293;SDS011;1659;51.470;6.770;2023-12-29T10:10:04;1.27;;;1.00;;
3293;SDS011;1659;51.470;6.770;2023-12-29T10:12:32;1.30;;;1.20;;
3293;SDS011;1659;51.470;6.770;2023-12-29T10:15:04;1.33;;;1.20;;
3293;SDS011;1659;51.470;6.770;2023-12-29T10:17:36;2.80;;;1.07;;
3293;SDS011;1659;51.470;6.770;2023-12-29T10:20:12;2.07;;;1.17;;
3293;SDS011;1659;51.470;6.770;2023-12-29T10:22:47;4.00;;;1.47;;
3293;SDS011;1659;51.470;6.770;2023-12-29T10:25:17;1.10;;;1.10;;
3293;SDS011;1659;51.470;6.770;2023-12-29T10:27:44;1.73;;;1.63;;
3293;SDS011;1659;51.470;6.770;2023-12-29T10:30:11;3.60;;;1.40;;
3293;SDS011;1659;51.470;6.770;2023-12-29T10:32:39;2.67;;;1.80;;
3293;SDS011;1659;51.470;6.770;2023-12-29T10:35:08;3.97;;;1.93;;
3293;SDS011;1659;51.470;6.770;2023-12-29T10:37:35;3.60;;;1.90;;
3293;SDS011;1659;51.470;6.770;2023-12-29T10:40:04;7.00;;;1.40;;
3293;SDS011;1659;51.470;6.770;2023-12-29T10:42:32;3.60;;;2.00;;
3293;SDS011;1659;51.470;6.770;2023-12-29T10:45:05;7.03;;;1.70;;
3293;SDS011;1659;51.470;6.770;2023-12-29T10:47:33;3.27;;;1.60;;
3293;SDS011;1659;51.470;6.770;2023-12-29T10:50:01;2.97;;;1.63;;
3293;SDS011;1659;51.470;6.770;2023-12-29T10:52:28;6.10;;;2.10;;
3293;SDS011;1659;51.470;6.770;2023-12-29T10:55:04;2.10;;;1.63;;
3293;SDS011;1659;51.470;6.770;2023-12-29T10:57:32;3.83;;;2.10;;
3293;SDS011;1659;51.470;6.770;2023-12-29T10:59:59;3.87;;;2.20;;
3293;SDS011;1659;51.470;6.770;2023-12-29T11:02:26;5.37;;;2.20;;
3293;SDS011;1659;51.470;6.770;2023-12-29T11:05:00;8.43;;;2.50;;
3293;SDS011;1659;51.470;6.770;2023-12-29T11:07:32;3.00;;;1.97;;
3293;SDS011;1659;51.470;6.770;2023-12-29T11:10:03;4.90;;;1.60;;
3293;SDS011;1659;51.470;6.770;2023-12-29T11:12:33;3.87;;;1.50;;
3293;SDS011;1659;51.470;6.770;2023-12-29T11:15:01;4.13;;;1.70;;
3293;SDS011;1659;51.470;6.770;2023-12-29T11:17:29;2.33;;;1.77;;
3293;SDS011;1659;51.470;6.770;2023-12-29T11:19:58;3.27;;;1.57;;
3293;SDS011;1659;51.470;6.770;2023-12-29T11:22:26;2.00;;;1.40;;
3293;SDS011;1659;51.470;6.770;2023-12-29T11:24:54;3.43;;;1.60;;
3293;SDS011;1659;51.470;6.770;2023-12-29T11:27:24;5.00;;;2.10;;
3293;SDS011;1659;51.470;6.770;2023-12-29T11:29:53;5.33;;;1.50;;
3293;SDS011;1659;51.470;6.770;2023-12-29T11:32:22;1.80;;;1.70;;
3293;SDS011;1659;51.470;6.770;2023-12-29T11:34:56;5.20;;;1.90;;
3293;SDS011;1659;51.470;6.770;2023-12-29T11:37:34;1.43;;;1.30;;
3293;SDS011;1659;51.470;6.770;2023-12-29T11:40:30;2.40;;;1.60;;
3293;SDS011;1659;51.470;6.770;2023-12-29T11:43:05;3.00;;;1.60;;
3293;SDS011;1659;51.470;6.770;2023-12-29T11:45:35;9.73;;;2.23;;
3293;SDS011;1659;51.470;6.770;2023-12-29T11:48:02;2.00;;;1.90;;
3293;SDS011;1659;51.470;6.770;2023-12-29T11:50:30;4.77;;;2.07;;
3293;SDS011;1659;51.470;6.770;2023-12-29T11:52:58;3.70;;;2.10;;
3293;SDS011;1659;51.470;6.770;2023-12-29T11:55:29;3.80;;;1.87;;
3293;SDS011;1659;51.470;6.770;2023-12-29T11:57:56;1.90;;;1.73;;
3293;SDS011;1659;51.470;6.770;2023-12-29T12:03:16;1.33;;;1.20;;
3293;SDS011;1659;51.470;6.770;2023-12-29T12:05:45;5.30;;;2.15;;
3293;SDS011;1659;51.470;6.770;2023-12-29T12:08:26;5.37;;;2.20;;
3293;SDS011;1659;51.470;6.770;2023-12-29T12:10:52;4.93;;;2.10;;
3293;SDS011;1659;51.470;6.770;2023-12-29T12:16:11;13.33;;;3.00;;
3293;SDS011;1659;51.470;6.770;2023-12-29T12:19:14;3.23;;;1.93;;
3293;SDS011;1659;51.470;6.770;2023-12-29T12:21:42;2.60;;;2.30;;
3293;SDS011;1659;51.470;6.770;2023-12-29T12:24:12;17.10;;;3.10;;
3293;SDS011;1659;51.470;6.770;2023-12-29T12:26:38;3.33;;;2.10;;
3293;SDS011;1659;51.470;6.770;2023-12-29T12:29:06;5.67;;;3.23;;
3293;SDS011;1659;51.470;6.770;2023-12-29T12:31:35;3.90;;;2.17;;
3293;SDS011;1659;51.470;6.770;2023-12-29T12:34:02;2.40;;;2.20;;
3293;SDS011;1659;51.470;6.770;2023-12-29T12:36:29;7.83;;;2.57;;
3293;SDS011;1659;51.470;6.770;2023-12-29T12:38:57;3.97;;;2.30;;
3293;SDS011;1659;51.470;6.770;2023-12-29T12:41:25;3.97;;;2.63;;
3293;SDS011;1659;51.470;6.770;2023-12-29T12:43:57;2.80;;;2.27;;
3293;SDS011;1659;51.470;6.770;2023-12-29T12:46:29;5.43;;;3.10;;
3293;SDS011;1659;51.470;6.770;2023-12-29T12:49:02;8.13;;;1.90;;
3293;SDS011;1659;51.470;6.770;2023-12-29T12:51:29;4.83;;;2.30;;
3293;SDS011;1659;51.470;6.770;2023-12-29T12:53:57;4.37;;;2.10;;
3293;SDS011;1659;51.470;6.770;2023-12-29T12:56:24;3.77;;;2.40;;
3293;SDS011;1659;51.470;6.770;2023-12-29T12:58:52;2.37;;;2.23;;
3293;SDS011;1659;51.470;6.770;2023-12-29T13:01:19;4.70;;;2.67;;
3293;SDS011;1659;51.470;6.770;2023-12-29T13:03:47;3.80;;;2.00;;
3293;SDS011;1659;51.470;6.770;2023-12-29T13:06:14;2.23;;;2.03;;
3293;SDS011;1659;51.470;6.770;2023-12-29T13:08:42;6.00;;;2.07;;
3293;SDS011;1659;51.470;6.770;2023-12-29T13:11:09;2.67;;;1.83;;
3293;SDS011;1659;51.470;6.770;2023-12-29T13:13:37;3.60;;;1.70;;
3293;SDS011;1659;51.470;6.770;2023-12-29T13:16:04;3.00;;;2.10;;
3293;SDS011;1659;51.470;6.770;2023-12-29T13:18:31;3.07;;;2.67;;
3293;SDS011;1659;51.470;6.770;2023-12-29T13:21:00;5.67;;;2.30;;
3293;SDS011;1659;51.470;6.770;2023-12-29T13:23:28;4.83;;;2.23;;
3293;SDS011;1659;51.470;6.770;2023-12-29T13:25:55;3.00;;;2.30;;
3293;SDS011;1659;51.470;6.770;2023-12-29T13:28:25;2.77;;;2.30;;
3293;SDS011;1659;51.470;6.770;2023-12-29T13:30:53;5.93;;;2.53;;
3293;SDS011;1659;51.470;6.770;2023-12-29T13:33:24;5.13;;;2.60;;
3293;SDS011;1659;51.470;6.770;2023-12-29T13:35:58;4.13;;;2.90;;
3293;SDS011;1659;51.470;6.770;2023-12-29T13:38:33;3.80;;;2.20;;
3293;SDS011;1659;51.470;6.770;2023-12-29T13:41:09;4.70;;;2.67;;
3293;SDS011;1659;51.470;6.770;2023-12-29T13:43:38;3.20;;;2.60;;
3293;SDS011;1659;51.470;6.770;2023-12-29T13:46:07;4.27;;;2.60;;
3293;SDS011;1659;51.470;6.770;2023-12-29T13:48:36;5.10;;;2.40;;
3293;SDS011;1659;51.470;6.770;2023-12-29T13:51:05;2.63;;;2.13;;
3293;SDS011;1659;51.470;6.770;2023-12-29T13:53:31;8.23;;;2.83;;
3293;SDS011;1659;51.470;6.770;2023-12-29T13:56:05;3.90;;;2.90;;
3293;SDS011;1659;51.470;6.770;2023-12-29T13:58:33;6.93;;;3.47;;
3293;SDS011;1659;51.470;6.770;2023-12-29T14:00:59;4.40;;;2.87;;
3293;SDS011;1659;51.470;6.770;2023-12-29T14:03:27;13.03;;;3.40;;
3293;SDS011;1659;51.470;6.770;2023-12-29T14:05:59;6.93;;;2.60;;
3293;SDS011;1659;51.470;6.770;2023-12-29T14:08:32;4.60;;;2.20;;
3293;SDS011;1659;51.470;6.770;2023-12-29T14:11:00;8.87;;;2.47;;
3293;SDS011;1659;51.470;6.770;2023-12-29T14:13:27;6.43;;;2.83;;
3293;SDS011;1659;51.470;6.770;2023-12-29T14:15:54;5.17;;;3.13;;
3293;SDS011;1659;51.470;6.770;2023-12-29T14:18:28;3.57;;;2.33;;
3293;SDS011;1659;51.470;6.770;2023-12-29T14:21:26;5.07;;;1.83;;
3293;SDS011;1659;51.470;6.770;2023-12-29T14:24:02;7.73;;;2.20;;
3293;SDS011;1659;51.470;6.770;2023-12-29T14:26:35;5.10;;;2.20;;
3293;SDS011;1659;51.470;6.770;2023-12-29T14:29:04;5.87;;;2.27;;
3293;SDS011;1659;51.470;6.770;2023-12-29T14:31:32;3.83;;;2.37;;
3293;SDS011;1659;51.470;6.770;2023-12-29T14:34:03;3.00;;;2.30;;
3293;SDS011;1659;51.470;6.770;2023-12-29T14:36:30;5.23;;;1.80;;
3293;SDS011;1659;51.470;6.770;2023-12-29T14:38:57;2.50;;;1.87;;
3293;SDS011;1659;51.470;6.770;2023-12-29T14:41:25;2.57;;;1.90;;
3293;SDS011;1659;51.470;6.770;2023-12-29T14:43:52;4.87;;;1.90;;
3293;SDS011;1659;51.470;6.770;2023-12-29T14:46:19;3.10;;;2.07;;
3293;SDS011;1659;51.470;6.770;2023-12-29T14:48:46;4.60;;;2.37;;
3293;SDS011;1659;51.470;6.770;2023-12-29T14:51:13;2.67;;;1.60;;
3293;SDS011;1659;51.470;6.770;2023-12-29T14:53:39;5.57;;;1.67;;
3293;SDS011;1659;51.470;6.770;2023-12-29T14:56:09;1.80;;;1.70;;
3293;SDS011;1659;51.470;6.770;2023-12-29T14:58:36;4.17;;;1.67;;
3293;SDS011;1659;51.470;6.770;2023-12-29T15:01:03;2.10;;;1.70;;
3293;SDS011;1659;51.470;6.770;2023-12-29T15:03:30;6.77;;;2.03;;
3293;SDS011;1659;51.470;6.770;2023-12-29T15:05:57;5.80;;;1.87;;
3293;SDS011;1659;51.470;6.770;2023-12-29T15:08:24;3.90;;;1.63;;
3293;SDS011;1659;51.470;6.770;2023-12-29T15:10:51;3.90;;;1.30;;
3293;SDS011;1659;51.470;6.770;2023-12-29T15:13:18;3.43;;;2.13;;
3293;SDS011;1659;51.470;6.770;2023-12-29T15:15:46;3.33;;;1.73;;
3293;SDS011;1659;51.470;6.770;2023-12-29T15:18:13;2.90;;;2.07;;
3293;SDS011;1659;51.470;6.770;2023-12-29T15:20:39;1.10;;;1.00;;
3293;SDS011;1659;51.470;6.770;2023-12-29T15:23:06;9.33;;;2.10;;
3293;SDS011;1659;51.470;6.770;2023-12-29T15:25:33;1.93;;;1.67;;